Moyie Springs, Idaho
Current Conditions -  °F | °C
As of 6:10 PM on Sunday 25 Jan 2015 (Local Time) from K65S Reporting Station
Moderate Fog Moderate Fog  
Wind Chill: 36°   Ceiling: 200
Heat Index: 36°   Visibility: 0.25mi
Dew Point: 36°   Wind: 0mph
Humidity: 100%   Direction: NA
Pressure: 30.2"   Gusts: NA
Location:  48.73°N, 116.19°W
Report Text: K65S 260210Z AUTO 00000KT 1/4SM FG BKN002 OVC009 02/02 A3020 RMK AO2
Loading
Personal Weather Stations






























Interactive Weather Map New forecast layout! Learn more

10-Day Weather Forecast

Advertisements
Track Severe Weather on mobile